Edmundston, Canada
Current Conditions -  °F | °C
As of 10:53 AM on Saturday 25 Oct 2014 (Local Time) from KFVE Reporting Station
Light Rain Light Rain  
Wind Chill: 35°   Ceiling: 4900
Heat Index: 41°   Visibility: 10mi
Dew Point: 32°   Wind: 9mph
Humidity: 70%   Direction: 350°N
Pressure: 29.62"   Gusts: NA
Location:  47.37°N, 68.33°W
Report Text: KFVE 251353Z AUTO 35008KT 10SM -RA SCT038 OVC049 05/00 A2962 RMK AO2 RAB41 SLP035 P0000 T00500000
Loading
Personal Weather Stations






























Interactive Weather Map
Tropical Storm Tracking
New forecast layout! Learn more

10-Day Weather Forecast

Advertisements
Track Severe Weather on mobile